createdAt,value
2019-03-09T00:02:13.435Z,6.80
2019-03-09T00:04:39.723Z,6.90
2019-03-09T00:07:06.019Z,6.80
2019-03-09T00:09:32.399Z,6.80
2019-03-09T00:11:58.852Z,6.80
2019-03-09T00:14:25.320Z,6.80
2019-03-09T00:16:51.608Z,6.90
2019-03-09T00:19:17.913Z,6.90
2019-03-09T00:21:44.320Z,6.90
2019-03-09T00:24:18.687Z,6.90
2019-03-09T00:26:47.995Z,6.80
2019-03-09T00:29:16.141Z,6.90
2019-03-09T00:31:44.447Z,6.90
2019-03-09T00:34:10.843Z,6.90
2019-03-09T00:36:37.230Z,7.00
2019-03-09T00:39:04.892Z,7.00
2019-03-09T00:41:31.156Z,7.00
2019-03-09T00:43:57.442Z,7.00
2019-03-09T00:46:23.695Z,7.00
2019-03-09T00:48:50.051Z,7.00
2019-03-09T00:51:16.325Z,7.00
2019-03-09T00:53:43.863Z,7.00
2019-03-09T00:56:10.498Z,7.00
2019-03-09T00:58:36.861Z,7.00
2019-03-09T01:01:03.314Z,7.10
2019-03-09T01:03:29.823Z,7.10
2019-03-09T01:05:56.087Z,7.10
2019-03-09T01:08:22.475Z,7.10
2019-03-09T01:10:48.965Z,7.10
2019-03-09T01:13:15.322Z,7.10
2019-03-09T01:15:41.602Z,7.10
2019-03-09T01:18:08.175Z,7.10
2019-03-09T01:20:34.548Z,7.20
2019-03-09T01:23:00.805Z,7.10
2019-03-09T01:25:27.155Z,7.10
2019-03-09T01:27:53.654Z,6.90
2019-03-09T01:30:20.245Z,6.90
2019-03-09T01:32:46.788Z,6.90
2019-03-09T01:35:13.285Z,6.80
2019-03-09T01:37:40.499Z,6.80
2019-03-09T01:40:10.095Z,6.70
2019-03-09T01:42:36.451Z,6.60
2019-03-09T01:45:05.317Z,6.60
2019-03-09T01:47:31.614Z,6.50
2019-03-09T01:49:57.870Z,6.50
2019-03-09T01:52:24.130Z,6.60
2019-03-09T01:54:50.436Z,6.50
2019-03-09T01:57:19.407Z,6.50
2019-03-09T01:59:48.495Z,6.50
2019-03-09T02:02:14.835Z,6.50
2019-03-09T02:04:41.099Z,6.50
2019-03-09T02:07:08.843Z,6.50
2019-03-09T02:09:35.342Z,6.50
2019-03-09T02:12:01.501Z,6.50
2019-03-09T02:14:28.803Z,6.60
2019-03-09T02:16:55.103Z,6.60
2019-03-09T02:19:21.406Z,6.50
2019-03-09T02:22:07.615Z,6.50
2019-03-09T02:24:34.055Z,6.40
2019-03-09T02:27:00.455Z,6.40
2019-03-09T02:29:26.821Z,6.40
2019-03-09T02:31:53.096Z,6.40
2019-03-09T02:34:19.574Z,6.40
2019-03-09T02:36:45.863Z,6.30
2019-03-09T02:39:19.931Z,6.30
2019-03-09T02:41:46.226Z,6.20
2019-03-09T02:44:12.599Z,6.20
2019-03-09T02:46:39.029Z,6.20
2019-03-09T02:49:05.329Z,6.20
2019-03-09T02:51:31.591Z,6.20
2019-03-09T02:53:57.859Z,6.20
2019-03-09T02:56:24.278Z,6.10
2019-03-09T02:58:50.610Z,6.20
2019-03-09T03:01:21.556Z,6.10
2019-03-09T03:03:47.850Z,6.10
2019-03-09T03:06:14.175Z,6.10
2019-03-09T03:08:41.533Z,6.10
2019-03-09T03:11:07.922Z,6.10
2019-03-09T03:13:34.319Z,6.00
2019-03-09T03:16:00.874Z,6.00
2019-03-09T03:18:27.112Z,6.00
2019-03-09T03:20:53.527Z,6.00
2019-03-09T03:23:19.903Z,6.00
2019-03-09T03:25:46.519Z,6.00
2019-03-09T03:28:12.893Z,6.00
2019-03-09T03:30:40.137Z,6.00
2019-03-09T03:33:06.432Z,6.00
2019-03-09T03:35:32.670Z,6.00
2019-03-09T03:37:59.019Z,6.00
2019-03-09T03:40:25.378Z,6.00
2019-03-09T03:42:51.865Z,6.00
2019-03-09T03:45:18.321Z,6.00
2019-03-09T03:47:44.790Z,6.00
2019-03-09T03:50:11.246Z,6.10
2019-03-09T03:52:37.541Z,6.10
2019-03-09T03:55:06.261Z,6.00
2019-03-09T03:57:32.599Z,6.10
2019-03-09T03:59:59.085Z,6.10
2019-03-09T04:02:25.565Z,6.10
2019-03-09T04:04:52.116Z,6.10
2019-03-09T04:07:18.607Z,6.10
2019-03-09T04:09:45.072Z,6.10
2019-03-09T04:12:11.474Z,6.20
2019-03-09T04:14:37.914Z,6.20
2019-03-09T04:17:04.455Z,6.20
2019-03-09T04:19:30.921Z,6.30
2019-03-09T04:21:57.274Z,6.30
2019-03-09T04:24:23.664Z,6.30
2019-03-09T04:26:50.261Z,6.20
2019-03-09T04:29:16.516Z,6.30
2019-03-09T04:31:43.019Z,6.30
2019-03-09T04:34:09.317Z,6.30
2019-03-09T04:36:35.704Z,6.30
2019-03-09T04:39:04.506Z,6.30
2019-03-09T04:41:30.851Z,6.30
2019-03-09T04:44:00.188Z,6.40
2019-03-09T04:46:26.455Z,6.40
2019-03-09T04:48:52.709Z,6.50
2019-03-09T04:51:18.973Z,6.40
2019-03-09T04:53:45.330Z,6.40
2019-03-09T04:56:12.049Z,6.50
2019-03-09T04:58:38.295Z,6.50
2019-03-09T05:01:04.544Z,6.50
2019-03-09T05:03:30.985Z,6.60
2019-03-09T05:05:57.291Z,6.50
2019-03-09T05:08:33.617Z,6.60
2019-03-09T05:11:03.425Z,6.70
2019-03-09T05:13:32.682Z,6.70
2019-03-09T05:15:58.880Z,6.70
2019-03-09T05:18:25.243Z,6.70
2019-03-09T05:20:51.523Z,6.80
2019-03-09T05:23:17.972Z,6.80
2019-03-09T05:25:44.386Z,6.80
2019-03-09T05:28:10.777Z,6.80
2019-03-09T05:30:43.011Z,6.80
2019-03-09T05:33:09.273Z,6.90
2019-03-09T05:35:35.848Z,7.00
2019-03-09T05:38:02.515Z,7.10
2019-03-09T05:40:28.919Z,7.10
2019-03-09T05:42:55.313Z,7.10
2019-03-09T05:45:21.569Z,7.00
2019-03-09T05:47:47.874Z,7.10
2019-03-09T05:50:14.119Z,7.00
2019-03-09T05:52:40.475Z,7.10
2019-03-09T05:55:10.132Z,7.10
2019-03-09T05:57:36.503Z,7.30
2019-03-09T06:00:06.468Z,7.20
2019-03-09T06:02:32.740Z,7.30
2019-03-09T06:04:59.231Z,7.30
2019-03-09T06:07:25.495Z,7.20
2019-03-09T06:09:51.821Z,7.20
2019-03-09T06:12:18.321Z,7.20
2019-03-09T06:14:44.851Z,7.10
2019-03-09T06:17:11.194Z,7.10
2019-03-09T06:19:37.456Z,7.20
2019-03-09T06:22:03.831Z,7.20
2019-03-09T06:24:30.413Z,7.30
2019-03-09T06:26:56.787Z,7.20
2019-03-09T06:29:23.123Z,7.30
2019-03-09T06:32:28.654Z,7.30
2019-03-09T06:34:55.350Z,7.30
2019-03-09T06:37:22.682Z,7.30
2019-03-09T06:39:49.057Z,7.30
2019-03-09T06:42:21.795Z,7.20
2019-03-09T06:44:48.084Z,7.30
2019-03-09T06:47:14.336Z,7.30
2019-03-09T06:49:40.736Z,7.40
2019-03-09T06:52:06.977Z,7.30
2019-03-09T06:54:33.342Z,7.30
2019-03-09T06:56:59.603Z,7.30
2019-03-09T06:59:26.072Z,7.40
2019-03-09T07:01:52.497Z,7.40
2019-03-09T07:04:18.955Z,7.50
2019-03-09T07:06:45.371Z,7.40
2019-03-09T07:09:11.642Z,7.40
2019-03-09T07:11:37.901Z,7.50
2019-03-09T07:14:16.551Z,7.50
2019-03-09T07:16:42.872Z,7.50
2019-03-09T07:19:09.226Z,7.50
2019-03-09T07:21:35.859Z,7.60
2019-03-09T07:24:02.279Z,7.60
2019-03-09T07:26:28.520Z,7.60
2019-03-09T07:28:55.376Z,7.60
2019-03-09T07:31:21.697Z,7.70
2019-03-09T07:33:51.781Z,7.70
2019-03-09T07:36:18.323Z,7.70
2019-03-09T07:38:44.716Z,7.70
2019-03-09T07:41:11.087Z,7.60
2019-03-09T07:43:39.345Z,7.70
2019-03-09T07:46:05.659Z,7.70
2019-03-09T07:48:32.000Z,7.80
2019-03-09T07:50:58.252Z,7.70
2019-03-09T07:53:24.547Z,7.70
2019-03-09T07:55:51.017Z,7.70
2019-03-09T07:58:17.406Z,7.60
2019-03-09T08:00:43.932Z,7.60
2019-03-09T08:03:10.334Z,7.60
2019-03-09T08:05:36.749Z,7.60
2019-03-09T08:08:03.453Z,7.60
2019-03-09T08:10:30.265Z,7.60
2019-03-09T08:12:56.773Z,7.60
2019-03-09T08:15:23.159Z,7.60
2019-03-09T08:17:49.672Z,7.70
2019-03-09T08:20:17.248Z,7.80
2019-03-09T08:22:43.853Z,7.80
2019-03-09T08:25:12.349Z,7.80
2019-03-09T08:27:38.786Z,7.70
2019-03-09T08:30:14.052Z,7.80
2019-03-09T08:32:40.502Z,7.80
2019-03-09T08:35:08.087Z,7.80
2019-03-09T08:37:34.340Z,7.80
2019-03-09T08:40:00.636Z,7.90
2019-03-09T08:42:27.009Z,8.10
2019-03-09T08:44:53.600Z,8.10
2019-03-09T08:47:20.026Z,8.10
2019-03-09T08:49:46.628Z,8.00
2019-03-09T08:52:13.048Z,8.00
2019-03-09T08:54:39.347Z,7.90
2019-03-09T08:57:08.416Z,7.90
2019-03-09T08:59:34.676Z,8.10
2019-03-09T09:02:01.047Z,8.10
2019-03-09T09:04:27.411Z,8.10
2019-03-09T09:06:53.855Z,8.00
2019-03-09T09:09:20.463Z,8.10
2019-03-09T09:11:46.821Z,8.00
2019-03-09T09:14:13.284Z,8.10
2019-03-09T09:16:39.751Z,8.20
2019-03-09T09:19:06.298Z,8.40
2019-03-09T09:21:32.812Z,8.50
2019-03-09T09:23:59.142Z,8.40
2019-03-09T09:26:25.630Z,8.20
2019-03-09T09:28:52.156Z,8.20
2019-03-09T09:31:18.494Z,8.20
2019-03-09T09:33:44.877Z,8.20
2019-03-09T09:36:11.228Z,8.30
2019-03-09T09:38:37.644Z,8.40
2019-03-09T09:41:04.107Z,8.40
2019-03-09T09:43:30.613Z,8.50
2019-03-09T09:45:57.215Z,8.50
2019-03-09T09:48:23.711Z,8.50
2019-03-09T09:50:50.004Z,8.50
2019-03-09T09:53:16.268Z,8.70
2019-03-09T09:55:42.813Z,8.70
2019-03-09T09:58:09.099Z,8.50
2019-03-09T10:00:35.652Z,8.50
2019-03-09T10:03:02.019Z,8.60
2019-03-09T10:05:28.618Z,8.50
2019-03-09T10:08:02.806Z,8.60
2019-03-09T10:10:29.978Z,8.70
2019-03-09T10:12:56.915Z,8.60
2019-03-09T10:15:25.196Z,8.50
2019-03-09T10:17:52.054Z,8.40
2019-03-09T10:20:18.537Z,8.50
2019-03-09T10:22:44.921Z,8.50
2019-03-09T10:25:11.557Z,8.70
2019-03-09T10:27:38.087Z,8.80
2019-03-09T10:30:11.115Z,8.90
2019-03-09T10:32:39.389Z,8.80
2019-03-09T10:35:06.843Z,8.80
2019-03-09T10:37:33.176Z,8.70
2019-03-09T10:39:59.495Z,8.70
2019-03-09T10:42:25.896Z,8.80
2019-03-09T10:44:52.216Z,8.80
2019-03-09T10:47:18.467Z,8.80
2019-03-09T10:49:44.961Z,9.00
2019-03-09T10:52:11.571Z,9.10
2019-03-09T10:54:37.937Z,9.10
2019-03-09T10:57:04.456Z,9.10
2019-03-09T10:59:31.002Z,9.10
2019-03-09T11:01:57.421Z,8.90
2019-03-09T11:04:27.532Z,8.80
2019-03-09T11:06:52.092Z,9.00
2019-03-09T11:09:20.529Z,8.90
2019-03-09T11:11:46.890Z,9.00
2019-03-09T11:14:13.234Z,9.00
2019-03-09T11:16:40.270Z,8.90
2019-03-09T11:19:06.646Z,9.10
2019-03-09T11:21:38.202Z,9.10
2019-03-09T11:24:24.552Z,9.00
2019-03-09T11:26:54.624Z,8.90
2019-03-09T11:29:21.524Z,9.10
2019-03-09T11:31:48.018Z,9.20
2019-03-09T11:34:14.467Z,9.10
2019-03-09T11:36:40.860Z,9.10
2019-03-09T11:39:07.414Z,9.20
2019-03-09T11:41:34.037Z,9.20
2019-03-09T11:44:00.341Z,9.30
2019-03-09T11:46:26.651Z,9.30
2019-03-09T11:48:53.063Z,9.20
2019-03-09T11:51:19.573Z,9.10
2019-03-09T11:53:45.838Z,9.20
2019-03-09T11:56:12.338Z,9.30
2019-03-09T11:58:38.808Z,9.40
2019-03-09T12:01:05.126Z,9.50
2019-03-09T12:03:31.470Z,9.50
2019-03-09T12:05:57.867Z,9.40
2019-03-09T12:08:24.200Z,9.50
2019-03-09T12:10:50.665Z,9.50
2019-03-09T12:13:17.259Z,9.50
2019-03-09T12:15:43.777Z,9.60
2019-03-09T12:18:10.133Z,9.60
2019-03-09T12:20:36.507Z,9.50
2019-03-09T12:23:14.479Z,9.50
2019-03-09T12:25:43.566Z,9.40
2019-03-09T12:28:10.081Z,9.40
2019-03-09T12:30:36.552Z,9.40
2019-03-09T12:33:02.906Z,9.40
2019-03-09T12:35:30.683Z,9.40
2019-03-09T12:37:57.054Z,9.40
2019-03-09T12:40:23.477Z,9.40
2019-03-09T12:42:49.873Z,9.40
2019-03-09T12:45:16.346Z,9.40
2019-03-09T12:47:42.804Z,9.40
2019-03-09T12:50:11.519Z,9.40
2019-03-09T12:52:37.719Z,9.50
2019-03-09T12:55:05.217Z,9.40
2019-03-09T12:57:31.502Z,9.50
2019-03-09T12:59:57.843Z,9.50
2019-03-09T13:02:24.243Z,9.60
2019-03-09T13:04:51.526Z,9.70
2019-03-09T13:07:18.087Z,9.80
2019-03-09T13:09:46.489Z,9.80
2019-03-09T13:12:12.732Z,9.60
2019-03-09T13:14:39.036Z,9.60
2019-03-09T13:17:05.631Z,9.70
2019-03-09T13:19:34.011Z,9.60
2019-03-09T13:22:01.900Z,9.60
2019-03-09T13:24:28.227Z,9.70
2019-03-09T13:26:54.478Z,9.70
2019-03-09T13:29:21.148Z,9.80
2019-03-09T13:31:47.525Z,9.80
2019-03-09T13:34:13.919Z,9.70
2019-03-09T13:36:40.172Z,9.70
2019-03-09T13:39:06.618Z,9.80
2019-03-09T13:41:33.113Z,9.70
2019-03-09T13:43:59.403Z,9.60
2019-03-09T13:46:25.747Z,9.70
2019-03-09T13:48:52.308Z,9.70
2019-03-09T13:51:18.677Z,9.80
2019-03-09T13:53:46.945Z,9.90
2019-03-09T13:56:13.387Z,9.90
2019-03-09T13:58:39.841Z,9.90
2019-03-09T14:01:06.255Z,10.00
2019-03-09T14:03:32.799Z,9.90
2019-03-09T14:05:59.225Z,10.00
2019-03-09T14:08:25.671Z,10.00
2019-03-09T14:10:52.110Z,10.10
2019-03-09T14:13:18.528Z,10.10
2019-03-09T14:15:45.076Z,9.90
2019-03-09T14:18:11.469Z,9.90
2019-03-09T14:20:37.841Z,9.80
2019-03-09T14:23:04.269Z,9.90
2019-03-09T14:25:30.580Z,9.80
2019-03-09T14:27:56.866Z,9.90
2019-03-09T14:30:23.370Z,10.00
2019-03-09T14:32:49.836Z,9.90
2019-03-09T14:35:16.099Z,9.90
2019-03-09T14:37:42.620Z,9.90
2019-03-09T14:40:14.755Z,9.90
2019-03-09T14:42:41.258Z,9.90
2019-03-09T14:45:16.132Z,9.90
2019-03-09T14:47:44.563Z,9.90
2019-03-09T14:50:11.542Z,9.80
2019-03-09T14:52:37.923Z,9.80
2019-03-09T14:55:06.659Z,9.70
2019-03-09T14:57:32.984Z,9.80
2019-03-09T14:59:59.276Z,9.70
2019-03-09T15:02:25.683Z,9.50
2019-03-09T15:04:51.968Z,9.50
2019-03-09T15:07:18.318Z,9.40
2019-03-09T15:09:44.775Z,9.60
2019-03-09T15:12:11.196Z,9.50
2019-03-09T15:14:37.500Z,9.60
2019-03-09T15:17:05.777Z,9.60
2019-03-09T15:19:32.181Z,9.50
2019-03-09T15:22:01.455Z,9.40
2019-03-09T15:24:27.740Z,9.50
2019-03-09T15:26:55.970Z,9.60
2019-03-09T15:29:22.746Z,9.60
2019-03-09T15:31:49.092Z,9.60
2019-03-09T15:34:15.541Z,9.50
2019-03-09T15:36:41.946Z,9.50
2019-03-09T15:39:08.579Z,9.50
2019-03-09T15:41:35.186Z,9.60
2019-03-09T15:44:01.700Z,9.50
2019-03-09T15:46:28.109Z,9.50
2019-03-09T15:48:54.825Z,9.50
2019-03-09T15:51:21.600Z,9.50
2019-03-09T15:53:48.329Z,9.60
2019-03-09T15:56:14.992Z,9.80
2019-03-09T15:58:41.344Z,9.80
2019-03-09T16:01:09.052Z,9.50
2019-03-09T16:03:37.900Z,9.20
2019-03-09T16:06:04.938Z,9.20
2019-03-09T16:08:31.323Z,9.10
2019-03-09T16:10:58.080Z,8.80
2019-03-09T16:13:24.581Z,8.40
2019-03-09T16:15:51.177Z,8.30
2019-03-09T16:18:17.490Z,7.80
2019-03-09T16:20:43.953Z,7.70
2019-03-09T16:23:13.800Z,7.80
2019-03-09T16:25:40.008Z,7.70
2019-03-09T16:28:06.366Z,7.80
2019-03-09T16:30:32.678Z,7.70
2019-03-09T16:32:58.982Z,7.60
2019-03-09T16:35:26.272Z,7.50
2019-03-09T16:37:52.834Z,7.30
2019-03-09T16:40:20.630Z,7.20
2019-03-09T16:42:47.104Z,7.20
2019-03-09T16:45:13.679Z,7.10
2019-03-09T16:47:40.031Z,7.00
2019-03-09T16:50:09.472Z,7.10
2019-03-09T16:52:35.965Z,7.20
2019-03-09T16:55:03.147Z,7.40
2019-03-09T16:57:29.556Z,7.20
2019-03-09T16:59:56.044Z,7.10
2019-03-09T17:02:27.860Z,7.10
2019-03-09T17:04:50.390Z,7.10
2019-03-09T17:07:17.120Z,7.10
2019-03-09T17:09:43.427Z,7.20
2019-03-09T17:12:09.657Z,7.30
2019-03-09T17:14:36.019Z,7.10
2019-03-09T17:17:02.392Z,7.20
2019-03-09T17:19:28.867Z,7.10
2019-03-09T17:21:55.195Z,7.20
2019-03-09T17:24:21.748Z,7.20
2019-03-09T17:26:48.106Z,7.20
2019-03-09T17:29:14.665Z,7.40
2019-03-09T17:31:41.267Z,7.40
2019-03-09T17:34:07.744Z,7.20
2019-03-09T17:36:34.206Z,7.20
2019-03-09T17:39:00.686Z,7.20
2019-03-09T17:41:26.944Z,7.00
2019-03-09T17:44:13.388Z,7.00
2019-03-09T17:46:41.134Z,7.10
2019-03-09T17:49:07.439Z,7.20
2019-03-09T17:51:33.690Z,7.10
2019-03-09T17:53:59.955Z,7.00
2019-03-09T17:56:26.193Z,6.90
2019-03-09T17:58:52.489Z,6.80
2019-03-09T18:01:18.881Z,6.70
2019-03-09T18:03:45.133Z,6.50
2019-03-09T18:06:11.610Z,6.40
2019-03-09T18:08:38.034Z,6.20
2019-03-09T18:11:08.051Z,6.20
2019-03-09T18:13:34.301Z,6.10
2019-03-09T18:16:00.629Z,6.00
2019-03-09T18:18:26.911Z,6.00
2019-03-09T18:20:53.301Z,6.10
2019-03-09T18:23:19.762Z,6.00
2019-03-09T18:25:46.479Z,5.80
2019-03-09T18:28:12.737Z,5.90
2019-03-09T18:30:39.091Z,5.80
2019-03-09T18:33:05.602Z,5.70
2019-03-09T18:35:31.828Z,5.50
2019-03-09T18:38:00.001Z,5.60
2019-03-09T18:40:26.359Z,5.50
2019-03-09T18:42:52.856Z,5.50
2019-03-09T18:45:20.795Z,5.40
2019-03-09T18:47:47.228Z,5.40
2019-03-09T18:50:13.697Z,5.40
2019-03-09T18:52:40.076Z,5.30
2019-03-09T18:55:07.139Z,5.30
2019-03-09T18:57:33.479Z,5.40
2019-03-09T18:59:59.905Z,5.30
2019-03-09T19:02:26.266Z,5.40
2019-03-09T19:04:52.585Z,5.40
2019-03-09T19:07:18.845Z,5.40
2019-03-09T19:09:45.159Z,5.30
2019-03-09T19:12:11.536Z,5.40
2019-03-09T19:14:37.801Z,5.50
2019-03-09T19:17:04.252Z,5.30
2019-03-09T19:19:30.684Z,5.40
2019-03-09T19:21:57.068Z,5.20
2019-03-09T19:24:23.709Z,5.30
2019-03-09T19:26:50.007Z,5.30
2019-03-09T19:29:16.276Z,5.30
2019-03-09T19:31:42.601Z,5.30
2019-03-09T19:34:09.061Z,5.50
2019-03-09T19:36:35.370Z,5.50
2019-03-09T19:39:01.750Z,5.40
2019-03-09T19:41:28.035Z,5.40
2019-03-09T19:43:54.354Z,5.40
2019-03-09T19:46:20.851Z,5.50
2019-03-09T19:48:47.130Z,5.50
2019-03-09T19:51:13.514Z,5.60
2019-03-09T19:53:39.893Z,5.60
2019-03-09T19:56:06.390Z,5.50
2019-03-09T19:58:32.687Z,5.50
2019-03-09T20:00:59.143Z,5.70
2019-03-09T20:03:25.524Z,5.70
2019-03-09T20:05:51.837Z,5.80
2019-03-09T20:08:18.294Z,5.90
2019-03-09T20:10:44.607Z,5.80
2019-03-09T20:13:10.939Z,6.00
2019-03-09T20:15:37.490Z,6.00
2019-03-09T20:18:04.003Z,5.90
2019-03-09T20:20:30.581Z,5.90
2019-03-09T20:22:56.934Z,5.90
2019-03-09T20:25:23.467Z,6.00
2019-03-09T20:27:49.761Z,5.90
2019-03-09T20:30:20.309Z,6.00
2019-03-09T20:32:47.276Z,6.00
2019-03-09T20:35:13.903Z,5.90
2019-03-09T20:37:40.255Z,5.90
2019-03-09T20:40:14.249Z,6.00
2019-03-09T20:42:40.514Z,6.00
2019-03-09T20:45:10.221Z,6.00
2019-03-09T20:47:36.638Z,6.00
2019-03-09T20:50:06.736Z,5.90
2019-03-09T20:52:34.286Z,5.90
2019-03-09T20:55:00.590Z,5.90
2019-03-09T20:57:26.875Z,5.90
2019-03-09T20:59:53.251Z,6.00
2019-03-09T21:02:19.520Z,6.00
2019-03-09T21:04:45.978Z,6.00
2019-03-09T21:07:12.419Z,6.00
2019-03-09T21:09:38.688Z,6.00
2019-03-09T21:12:05.100Z,6.10
2019-03-09T21:14:33.720Z,6.10
2019-03-09T21:16:59.848Z,6.10
2019-03-09T21:19:26.393Z,6.00
2019-03-09T21:21:52.782Z,6.00
2019-03-09T21:24:19.192Z,6.10
2019-03-09T21:26:45.517Z,6.10
2019-03-09T21:29:11.802Z,6.20
2019-03-09T21:31:38.164Z,6.10
2019-03-09T21:34:04.623Z,6.10
2019-03-09T21:36:33.064Z,6.10
2019-03-09T21:38:59.456Z,6.20
2019-03-09T21:41:25.869Z,6.20
2019-03-09T21:43:52.419Z,6.10
2019-03-09T21:46:18.827Z,6.10
2019-03-09T21:48:45.170Z,6.10
2019-03-09T21:51:11.671Z,6.10
2019-03-09T21:53:38.106Z,6.10
2019-03-09T21:56:04.968Z,6.20
2019-03-09T21:58:31.248Z,6.20
2019-03-09T22:00:57.609Z,6.40
2019-03-09T22:03:24.100Z,6.40
2019-03-09T22:05:50.443Z,6.30
2019-03-09T22:08:16.836Z,6.30
2019-03-09T22:10:43.285Z,6.30
2019-03-09T22:13:09.808Z,6.30
2019-03-09T22:15:36.164Z,6.30
2019-03-09T22:18:02.575Z,6.40
2019-03-09T22:20:29.429Z,6.40
2019-03-09T22:22:55.924Z,6.30
2019-03-09T22:25:22.228Z,6.50
2019-03-09T22:27:48.526Z,6.40
2019-03-09T22:30:17.301Z,6.40
2019-03-09T22:32:43.692Z,6.30
2019-03-09T22:35:11.412Z,6.40
2019-03-09T22:37:37.977Z,6.20
2019-03-09T22:40:07.962Z,6.20
2019-03-09T22:42:34.311Z,6.10
2019-03-09T22:45:00.703Z,6.20
2019-03-09T22:47:27.060Z,6.10
2019-03-09T22:49:54.299Z,6.10
2019-03-09T22:52:20.588Z,6.00
2019-03-09T22:54:49.078Z,6.00
2019-03-09T22:57:15.512Z,6.10
2019-03-09T22:59:41.922Z,6.00
2019-03-09T23:02:08.610Z,6.10
2019-03-09T23:04:34.895Z,6.20
2019-03-09T23:07:21.691Z,6.20
2019-03-09T23:09:48.171Z,6.10
2019-03-09T23:12:14.553Z,6.10
2019-03-09T23:14:41.347Z,6.00
2019-03-09T23:17:07.624Z,6.00
2019-03-09T23:19:34.150Z,6.00
2019-03-09T23:22:00.418Z,5.90
2019-03-09T23:24:26.774Z,5.90
2019-03-09T23:26:53.291Z,5.80
2019-03-09T23:29:19.828Z,5.90
2019-03-09T23:31:46.305Z,5.90
2019-03-09T23:34:12.686Z,6.00
2019-03-09T23:36:39.218Z,6.00
2019-03-09T23:39:06.258Z,5.90
2019-03-09T23:41:32.697Z,5.90
2019-03-09T23:43:59.126Z,5.80
2019-03-09T23:46:25.653Z,5.90
2019-03-09T23:48:52.402Z,6.00
2019-03-09T23:51:18.810Z,5.90
2019-03-09T23:53:45.168Z,5.90
2019-03-09T23:56:13.572Z,5.80
2019-03-09T23:58:40.018Z,5.80
